Historyczne dane pomiarowe

Dodano dane terminowe – wersja testowa.

Dane z okresu 1951-2019

Wersja bazy: 1.34 [2019-03-16, lista zmian], aktualizacja planowana na 2019-04-15

Dane meteo z obszaru Polski uzyskane na podstawie danych udostępnionych przez Instytut Meteorologii i Gospodarki Wodnej – Państwowy Instytut Badawczy.

 

Wybierz Datę:    

       

TemperaturaWilgotnośćWiatrCiśnienieOpadyŚniegCzas trwania zjawisk
 Stacja t tx tn tng RH VA  wxwx mslp ppp RRR   cm mm wxwxwxwxwxwxwx
1970-09-11 21.2 27.2 12.0 8.1 72.3- 4.7 1.7---- 3.4------------
1970-09-12 13.0 21.5 10.4 12.0 81.0- 5.0 0.7---- 13.4------------
1970-09-13 13.6 19.4 9.2 6.6 75.8- 5.0 1.0---- 1.8------------
1970-09-14 16.4 22.4 8.4 6.4 60.3- 1.7 0.7---- 0.0------------
1970-09-15 16.1 25.3 8.7 5.4 79.3- 2.7 0.3---- 0.0------------
1970-09-16 17.0 21.9 10.7 8.4 66.8- 4.3 1.3---- 0.0------------
1970-09-17 11.4 17.8 8.4 6.7 73.3- 2.3 0.7---- 0.0------------
1970-09-18 12.8 18.2 4.9 1.7 78.0- 7.7 0.0---- 1.9------------
1970-09-19 13.3 16.9 11.5 11.2 90.0- 7.0 0.0---- 1.4------------
1970-09-20 11.4 16.7 9.1 7.7 87.3- 5.0 0.3---- 0.0------------
1970-09-21 14.0 19.9 8.7 4.3 79.8- 4.7 1.3---- 1.3------------
1970-09-22 8.6 13.9 6.2 7.9 77.5- 4.7 2.3---- 0.0------------
1970-09-23 7.8 13.8 2.6 -1.9 74.8- 6.3 1.3---- 0.0------------
1970-09-24 6.1 13.3 1.2 -3.3 74.5- 5.7 1.7---- 0.0------------
1970-09-25 8.7 12.4 0.0 -3.5 77.3- 6.3 1.3---- 0.4------------
1970-09-26 8.0 12.9 5.8 3.7 73.8- 5.7 0.7---- 0.0------------
1970-09-27 5.2 14.4 -0.7 -4.4 82.5- 2.7 0.3---- 0.0------------
1970-09-28 4.6 11.4 -0.6 -3.9 72.5- 1.3 0.3---- 0.0------------
1970-09-29 4.7 14.4 -2.4 -6.2 73.5- 2.7 0.3---- 0.0------------
1970-09-30 11.7 20.1 0.9 -2.4 65.0- 6.3 0.7---- 4.8------------
1970-10-01 10.9 14.6 9.1 9.6 83.8- 7.3 1.3---- 4.9------------
1970-10-02 9.0 12.6 7.3 4.7 87.0- 7.7 1.0---- 5.9------------
1970-10-03 8.9 12.1 6.3 4.0 68.5- 4.0 1.7---- 5.5------------
1970-10-04 8.3 10.4 7.3 4.7 82.8- 8.0 1.7---- 5.3------------
1970-10-05 10.1 12.1 6.8 3.8 85.3- 8.0 0.7---- 6.3------------
1970-10-06 11.5 19.8 8.2 9.6 86.8- 2.3 0.0---- 0.0------------
1970-10-07 12.8 22.1 3.5 1.1 75.5- 0.7 0.7---- 0.0------------
1970-10-08 11.9 21.5 6.0 2.1 86.8- 1.3 0.3---- 0.0------------
1970-10-09 13.5 20.6 5.2 2.4 88.0- 4.0 0.3---- 0.0------------
1970-10-10 15.6 25.1 9.5 6.7 81.8- 5.3 0.3---- 0.0------------
146.9 ms

 

Źródłem pochodzenia danych jest Instytut Meteorologii i Gospodarki Wodnej – Państwowy Instytut Badawczy. Dane Instytutu Meteorologii i Gospodarki Wodnej – Państwowego Instytutu Badawczego zostały przetworzone.

Dane źródłowe można odnaleźć na stronie https://dane.imgw.pl